Date,TemperatureHighF,TemperatureAvgF,TemperatureLowF,DewpointHighF,DewpointAvgF,DewpointLowF,HumidityHigh,HumidityAvg,HumidityLow,PressureMaxIn,PressureMinIn,WindSpeedMaxMPH,WindSpeedAvgMPH,GustSpeedMaxMPH,PrecipitationSumIn
2013-1-1,47,45,39,46,40,19,98,85,43,30.12,29.92,8,1,8,0.57
2013-1-2,45,41,38,44,40,36,98,95,86,30.11,29.87,7,1,8,0.57
2013-1-3,41,37,28,39,35,24,98,94,83,30.27,30.06,5,1,6,0.00
2013-1-4,48,33,25,26,21,15,87,63,31,30.36,30.24,8,2,8,0.00
2013-1-5,45,36,26,38,21,0,91,58,19,30.38,30.21,10,1,12,0.02
2013-1-6,54,43,33,41,34,24,92,72,43,30.22,30.03,11,2,12,0.01
2013-1-7,50,38,29,30,26,20,85,63,41,30.40,30.15,7,1,11,0.00
2013-1-8,50,41,31,47,36,26,96,81,65,30.42,30.34,7,1,7,0.00
2013-1-9,56,52,48,53,51,46,98,95,87,30.43,30.36,8,0,8,0.00
2013-1-10,62,55,50,52,50,49,97,85,68,30.44,30.25,9,1,9,0.18
2013-1-11,56,53,51,56,53,50,99,98,97,30.26,30.10,9,1,10,1.54
2013-1-12,67,59,55,62,57,54,99,94,77,30.13,30.04,10,1,10,0.05
2013-1-13,59,57,56,57,56,54,99,96,91,30.07,30.00,14,2,14,0.38
2013-1-14,59,57,56,58,57,56,99,99,98,30.06,29.98,13,1,15,1.96
2013-1-15,57,53,50,56,53,50,99,99,99,30.04,29.94,8,1,10,2.05
2013-1-16,56,52,49,56,51,49,100,98,93,29.96,29.88,10,1,10,0.58
2013-1-17,51,45,32,50,44,27,98,97,84,30.13,29.63,7,1,9,2.20
2013-1-18,47,36,28,30,24,19,87,65,43,30.50,30.13,7,1,8,0.00
2013-1-19,50,38,29,35,26,8,84,62,20,30.48,30.19,11,1,11,0.00
2013-1-20,56,43,35,35,25,16,65,50,31,30.19,30.06,11,2,14,0.00
2013-1-21,52,40,29,31,21,14,63,48,33,30.07,29.96,18,2,18,0.00
2013-1-22,36,28,20,14,9,2,58,46,25,30.24,29.94,20,2,23,0.00
2013-1-23,47,34,23,27,20,9,72,58,41,30.33,30.09,13,2,13,0.00
2013-1-24,47,36,22,32,17,-4,75,50,12,30.40,29.98,23,2,23,0.00
2013-1-25,43,26,18,42,21,5,97,81,54,30.41,30.14,11,1,12,0.14
2013-1-26,50,38,32,37,30,21,94,73,32,30.31,30.13,11,1,11,0.00
2013-1-27,43,35,27,34,30,25,94,82,66,30.48,30.31,7,1,8,0.00
2013-1-28,56,46,34,50,41,29,97,84,55,30.45,30.24,12,1,12,0.00
2013-1-29,63,54,48,55,49,36,98,84,53,30.25,29.98,11,1,11,0.44
2013-1-30,58,53,40,58,53,37,99,98,87,29.98,29.42,19,3,24,5.52
2013-1-31,40,32,26,38,24,19,94,71,50,30.07,29.47,16,2,17,0.02
2013-2-1,36,28,21,29,12,-1,92,52,27,30.34,29.97,19,2,23,0.00
2013-2-2,37,27,20,30,16,-6,97,67,24,30.36,30.07,9,1,9,0.00
2013-2-3,41,33,28,33,26,22,95,77,57,30.08,29.90,23,3,23,0.23
2013-2-4,48,35,25,28,23,19,80,63,42,30.14,30.00,12,1,12,0.00
2013-2-5,55,44,36,41,31,20,74,60,40,30.01,29.93,14,1,15,0.00
2013-2-6,59,46,36,36,27,13,85,53,21,30.19,29.98,9,1,10,0.00
2013-2-7,43,41,39,40,32,22,98,75,44,30.20,29.96,5,1,7,0.32
2013-2-8,49,41,32,45,36,23,98,84,48,30.09,29.90,11,1,15,0.01
2013-2-9,55,42,30,27,20,9,81,44,17,30.32,30.06,8,1,9,0.00
2013-2-10,48,41,37,44,29,20,98,64,39,30.35,30.16,9,1,9,0.97
2013-2-11,55,48,42,53,43,22,99,83,41,30.17,29.96,10,1,14,0.39
2013-2-12,52,43,38,39,30,21,95,63,32,30.06,29.88,11,2,12,0.09
2013-2-13,49,38,32,45,36,29,98,92,71,29.89,29.64,14,2,14,0.10
2013-2-14,47,37,28,38,29,25,93,76,50,30.07,29.86,10,2,12,0.00
2013-2-15,56,42,34,35,31,26,89,66,34,30.09,29.92,10,1,11,0.00
2013-2-16,38,29,18,31,21,10,89,74,46,30.00,29.79,19,2,19,0.00
2013-2-17,36,24,16,13,8,4,68,52,28,30.31,29.99,14,3,19,0.00
2013-2-18,50,36,24,26,20,12,67,55,38,30.38,30.19,11,2,14,0.00
2013-2-19,50,37,31,41,26,13,97,68,40,30.20,29.89,15,2,19,0.29
2013-2-20,48,36,26,16,6,-8,53,32,12,30.13,29.97,16,2,17,0.00
2013-2-21,54,42,33,34,16,-6,95,40,14,30.19,30.08,7,1,8,0.37
2013-2-22,45,36,32,44,36,31,99,97,95,30.23,30.08,7,1,7,0.65
2013-2-23,49,47,43,48,46,42,99,98,96,30.09,29.80,6,1,6,0.39
2013-2-24,60,45,35,42,30,18,97,61,23,30.00,29.81,10,2,12,0.00
2013-2-25,45,39,32,32,27,23,96,62,49,30.07,29.95,8,1,8,0.11
2013-2-26,40,36,32,40,35,31,98,96,84,29.97,29.58,10,2,11,2.70
2013-2-27,54,40,32,40,32,25,89,73,36,29.80,29.67,15,2,15,0.01
2013-2-28,37,32,27,31,25,22,84,76,65,29.91,29.69,11,2,14,0.00
2013-3-1,40,32,26,28,26,23,90,79,61,29.95,29.87,9,2,10,0.00
2013-3-2,41,31,23,30,25,18,95,79,52,29.93,29.85,12,1,14,0.06
2013-3-3,41,27,19,20,16,13,82,66,35,30.00,29.90,21,2,21,0.00
2013-3-4,48,33,20,26,18,12,78,56,35,30.17,30.00,12,1,12,0.00
2013-3-5,47,40,31,46,35,25,98,83,57,30.12,29.64,16,2,20,0.80
2013-3-6,36,28,22,28,23,18,93,82,69,30.15,29.63,26,3,26,0.01
2013-3-7,54,36,24,35,27,22,91,71,45,30.25,30.12,11,2,11,0.00
2013-3-8,56,43,31,29,20,5,69,43,21,30.27,30.20,8,2,8,0.00
2013-3-9,57,45,36,32,24,6,53,44,22,30.29,30.22,8,1,8,0.00
2013-3-10,61,49,43,36,32,27,64,51,38,30.25,30.13,10,1,10,0.00
2013-3-11,50,46,44,50,45,35,99,95,63,30.14,29.81,10,1,13,1.90
2013-3-12,59,48,36,50,37,16,99,71,24,29.98,29.73,10,2,15,0.33
2013-3-13,45,36,26,29,23,17,77,60,34,30.15,29.97,15,2,20,0.00
2013-3-14,49,32,21,24,15,6,79,52,20,30.31,30.14,11,2,11,0.00
2013-3-15,66,48,33,41,31,11,79,55,28,30.22,29.95,13,2,15,0.00
2013-3-16,74,60,51,47,42,39,67,54,32,29.95,29.74,12,2,12,0.00
2013-3-17,69,58,51,50,45,41,84,64,40,29.91,29.80,12,1,12,0.00
2013-3-18,51,44,40,47,42,39,98,95,84,29.96,29.82,8,1,9,0.41
2013-3-19,57,46,36,45,28,13,97,57,20,30.04,29.83,13,2,18,0.00
2013-3-20,53,39,31,28,14,5,87,36,16,30.08,29.83,11,2,13,0.00
2013-3-21,41,30,20,28,11,5,87,48,27,29.96,29.70,18,3,18,0.00
2013-3-22,41,32,24,28,18,11,67,57,47,30.08,29.96,7,1,7,0.00
2013-3-23,56,43,38,48,39,27,97,86,64,30.06,29.86,6,1,7,0.06
2013-3-24,44,40,36,42,39,35,98,97,90,29.90,29.49,9,1,9,1.28
2013-3-25,36,31,25,36,24,19,98,78,60,29.91,29.51,18,3,20,0.01
2013-3-26,39,29,23,27,23,20,90,76,57,30.22,29.90,11,2,15,0.00
2013-3-27,52,35,23,22,20,14,83,58,24,30.28,30.19,15,2,15,0.00
2013-3-28,55,39,27,22,18,8,78,48,15,30.31,30.20,12,2,13,0.00
2013-3-29,53,41,34,37,26,16,93,59,34,30.32,30.21,8,1,10,0.03
2013-3-30,60,48,40,44,40,37,93,75,52,30.22,30.05,10,1,10,0.06
2013-3-31,60,51,46,53,48,43,98,90,64,30.04,29.81,10,1,11,0.46
2013-4-1,63,52,44,50,41,33,96,69,40,29.94,29.80,13,2,13,0.01
2013-4-2,64,48,36,34,23,1,74,43,11,30.09,29.92,13,2,13,0.00
2013-4-3,57,46,37,28,24,19,55,43,28,30.22,30.06,8,1,8,0.00
2013-4-4,45,36,33,35,32,26,96,86,47,30.22,29.96,7,1,9,0.77
2013-4-5,66,48,35,45,35,18,97,69,18,30.06,29.89,9,2,12,0.00
2013-4-6,66,52,43,37,32,27,65,48,29,30.18,30.05,10,2,10,0.00
2013-4-7,64,54,44,47,40,32,71,60,49,30.17,30.08,10,2,12,0.00
2013-4-8,67,60,50,55,49,43,85,68,56,30.11,30.04,12,1,12,0.00
2013-4-9,77,65,57,58,53,50,80,67,48,30.14,30.05,14,2,15,0.00
2013-4-10,79,67,59,60,55,52,79,66,46,30.06,29.88,12,2,12,0.00
2013-4-11,70,62,55,61,56,52,97,81,58,29.90,29.61,16,2,18,3.49
2013-4-12,74,61,49,57,46,32,98,65,24,29.78,29.55,17,3,19,1.11
2013-4-13,72,56,45,37,32,22,71,45,18,30.00,29.73,17,3,20,0.00
2013-4-14,64,55,49,48,39,31,95,58,38,30.03,29.93,10,1,10,0.40
2013-4-15,67,55,49,59,53,47,98,91,74,30.16,29.91,7,1,8,0.39
2013-4-16,73,62,55,62,57,54,98,84,63,30.23,30.15,8,1,10,0.02
2013-4-17,77,63,58,64,57,54,95,84,58,30.18,30.06,8,1,8,1.56
2013-4-18,72,62,57,60,57,54,97,84,61,30.07,29.89,14,1,14,0.00
2013-4-19,61,56,40,60,54,35,98,93,72,29.89,29.66,16,3,16,1.92
2013-4-20,62,46,33,38,30,23,83,57,31,30.25,29.83,15,2,18,0.00
2013-4-21,62,48,38,38,32,27,76,55,35,30.38,30.25,13,1,13,0.00
2013-4-22,66,49,38,44,38,33,91,67,35,30.35,30.17,10,1,10,0.00
2013-4-23,68,53,39,47,38,28,76,58,40,30.25,30.09,9,1,9,0.00
2013-4-24,68,57,52,56,51,44,96,81,62,30.12,29.99,12,1,13,0.02
2013-4-25,71,55,40,54,34,8,95,56,11,30.25,30.01,9,2,9,0.00
2013-4-26,68,55,43,40,33,26,57,44,30,30.35,30.24,11,2,11,0.00
2013-4-27,55,50,48,49,46,39,96,87,55,30.33,30.21,5,0,6,0.82
2013-4-28,50,48,45,50,48,44,98,97,96,30.22,30.02,5,0,7,2.25
2013-4-29,68,57,49,61,54,49,99,89,73,30.05,29.90,9,1,10,0.06
2013-4-30,72,60,52,59,54,50,97,83,57,30.10,29.93,9,1,11,0.00
2013-5-1,65,57,52,55,52,50,94,84,62,30.20,30.09,10,1,10,0.00
2013-5-2,59,53,51,57,52,50,97,94,86,30.23,30.15,8,1,8,0.09
2013-5-3,56,51,49,52,50,48,98,95,83,30.18,30.04,10,1,11,0.29
2013-5-4,50,46,42,49,45,41,98,97,93,30.04,29.92,9,1,11,1.36
2013-5-5,49,46,44,48,46,43,99,98,98,29.96,29.80,11,1,11,2.75
2013-5-6,59,50,44,50,46,41,99,89,63,29.87,29.75,11,1,11,0.23
2013-5-7,63,51,42,51,45,40,92,79,52,29.94,29.83,7,1,8,0.01
2013-5-8,64,56,48,54,50,46,95,81,64,30.02,29.88,9,1,14,0.00
2013-5-9,77,62,50,60,53,48,96,76,42,30.07,29.98,9,1,9,0.00
2013-5-10,73,64,58,61,56,51,84,74,62,30.05,29.89,12,1,16,0.00
2013-5-11,74,61,56,63,56,51,90,82,55,29.91,29.77,15,1,15,0.00
2013-5-12,68,55,45,53,39,24,90,60,20,30.01,29.80,12,2,13,0.00
2013-5-13,66,50,39,32,29,22,72,47,19,30.17,30.00,13,1,13,0.00
2013-5-14,71,56,42,50,40,29,73,57,41,30.21,30.09,12,1,12,0.00
2013-5-15,84,70,58,63,52,47,76,56,30,30.09,29.92,15,2,16,0.00
2013-5-16,77,67,60,62,54,47,81,65,45,29.98,29.90,7,1,8,0.00
2013-5-17,78,66,60,62,57,52,85,73,51,30.04,29.95,9,1,11,0.00
2013-5-18,63,60,59,60,59,56,98,94,81,30.04,29.97,9,0,11,1.32
2013-5-19,67,62,60,66,61,59,99,97,90,30.06,29.96,8,0,8,0.28
2013-5-20,77,65,58,69,62,57,98,91,71,30.06,29.99,9,1,9,0.63
2013-5-21,78,67,62,69,62,55,96,86,62,29.99,29.89,9,1,9,0.02
2013-5-22,77,66,59,70,62,57,97,89,70,29.96,29.81,8,1,11,0.70
2013-5-23,78,66,59,64,58,51,98,78,41,29.87,29.80,11,1,12,0.17
2013-5-24,73,60,49,52,42,25,88,56,22,30.15,29.81,12,2,13,0.00
2013-5-25,72,58,45,52,40,28,69,54,28,30.25,30.13,9,1,9,0.00
2013-5-26,75,61,55,55,44,29,81,56,31,30.22,30.13,8,1,10,0.00
2013-5-27,75,64,56,60,55,50,84,73,53,30.21,30.10,8,1,9,0.00
2013-5-28,78,67,59,66,59,56,90,76,57,30.15,30.09,8,1,9,0.00
2013-5-29,78,67,59,65,60,56,93,78,53,30.17,30.10,9,1,10,0.00
2013-5-30,78,67,60,66,60,57,95,79,57,30.20,30.11,8,0,8,0.00
2013-5-31,77,68,62,65,61,58,94,80,59,30.16,30.05,8,1,8,0.00
2013-6-1,77,68,62,66,62,60,96,84,65,30.06,29.97,10,1,12,0.01
2013-6-2,67,64,62,67,63,61,98,96,89,30.01,29.84,10,0,12,2.19
2013-6-3,80,67,60,67,62,58,98,85,53,29.90,29.81,9,0,9,0.01
2013-6-4,80,68,60,67,61,56,91,79,60,30.01,29.88,6,1,7,0.00
2013-6-5,76,67,61,68,63,60,97,89,74,30.00,29.88,9,1,9,2.33
2013-6-6,69,64,60,67,62,58,98,95,90,29.91,29.74,6,0,6,0.40
2013-6-7,82,67,62,70,64,60,98,89,54,29.77,29.62,8,0,9,0.29
2013-6-8,76,66,58,70,62,57,97,88,68,30.05,29.76,6,0,7,0.01
2013-6-9,79,67,63,71,64,61,98,91,71,30.08,29.96,12,1,12,3.53
2013-6-10,75,66,61,68,64,59,98,93,60,29.98,29.86,12,1,14,2.07
2013-6-11,84,70,61,66,61,57,97,76,43,29.96,29.88,10,1,11,0.14
2013-6-12,89,74,65,74,66,61,89,77,52,29.97,29.88,7,1,8,0.00
2013-6-13,86,72,63,69,64,60,96,78,45,29.88,29.65,15,2,15,0.49
2013-6-14,81,66,55,63,56,51,96,72,40,29.99,29.73,11,0,11,0.01
2013-6-15,78,66,58,66,57,50,82,72,59,30.09,29.99,9,1,9,0.00
2013-6-16,80,69,62,69,62,55,87,76,63,30.09,29.97,9,1,11,0.00
2013-6-17,78,69,64,70,66,62,96,90,70,29.99,29.88,6,0,6,1.38
2013-6-18,76,68,64,71,65,62,98,91,73,29.90,29.75,10,0,13,0.03
2013-6-19,76,67,60,68,62,58,95,86,71,30.07,29.85,6,0,6,0.00
2013-6-20,74,66,60,67,62,58,97,87,74,30.18,30.05,6,0,7,0.00
2013-6-21,81,68,60,68,62,58,96,81,54,30.21,30.12,9,0,9,0.00
2013-6-22,82,68,59,67,60,57,95,78,47,30.18,30.06,7,0,7,0.00
2013-6-23,77,68,63,69,64,58,95,85,70,30.15,30.06,8,0,8,1.68
2013-6-24,76,68,63,71,66,61,98,92,78,30.17,30.05,6,0,6,0.62
2013-6-25,80,70,65,72,66,62,95,88,68,30.10,29.97,7,0,7,0.88
2013-6-26,81,70,64,73,66,63,97,89,67,30.00,29.87,8,0,8,0.02
2013-6-27,84,72,64,74,67,62,96,85,63,29.91,29.71,10,1,10,0.14
2013-6-28,84,73,64,70,65,63,96,79,52,29.76,29.57,14,1,14,0.00
2013-6-29,83,70,62,68,61,55,92,74,44,29.65,29.55,7,0,7,0.00
2013-6-30,79,69,62,67,61,56,90,75,59,29.75,29.63,8,0,8,0.95
2013-7-1,77,65,60,70,63,58,98,92,72,29.91,29.72,7,1,11,3.24
2013-7-2,75,67,62,69,65,61,98,93,78,30.07,29.90,9,1,10,1.14
2013-7-3,69,64,60,69,64,59,99,98,93,30.17,30.01,9,1,10,2.35
2013-7-4,67,63,60,66,63,60,99,99,98,30.17,30.11,14,1,14,3.55
2013-7-5,78,67,63,70,65,63,99,94,71,30.20,30.12,15,1,15,0.58
2013-7-6,74,67,63,71,66,62,99,96,84,30.15,30.05,13,1,13,1.75
2013-7-7,74,68,65,71,67,65,99,97,88,30.11,30.04,8,1,12,0.45
2013-7-8,80,70,65,74,67,63,97,91,72,30.14,30.05,5,0,6,0.22
2013-7-9,80,71,65,75,69,65,99,93,76,30.12,30.00,7,0,7,0.09
2013-7-10,80,70,66,74,68,65,98,94,76,30.07,29.90,7,0,7,0.56
2013-7-11,76,69,64,72,68,63,98,95,87,29.91,29.82,5,0,5,1.03
2013-7-12,80,68,61,72,65,60,99,93,72,29.94,29.82,7,0,7,0.09
2013-7-13,73,65,60,69,63,59,98,95,85,30.07,29.93,6,0,7,0.67
2013-7-14,69,66,66,68,66,64,99,98,95,30.23,30.05,9,1,11,1.11
2013-7-15,80,70,64,72,67,64,99,90,69,30.28,30.20,7,0,9,0.05
2013-7-16,85,73,66,75,69,66,98,87,55,30.27,30.17,7,0,8,0.01
2013-7-17,87,73,66,75,68,64,95,86,59,30.21,30.07,5,0,5,0.14
2013-7-18,83,72,65,75,68,63,97,87,70,30.14,30.02,6,0,6,0.00
2013-7-19,83,73,66,75,68,63,94,86,68,30.08,29.93,7,0,8,0.00
2013-7-20,81,71,67,75,68,66,96,92,73,29.99,29.87,5,0,5,0.53
2013-7-21,78,69,66,73,67,64,98,92,74,29.96,29.87,4,0,7,1.41
2013-7-22,80,69,64,74,67,63,99,93,79,29.94,29.80,8,0,8,0.13
2013-7-23,82,70,63,72,66,62,97,87,59,29.86,29.74,9,1,10,0.01
2013-7-24,83,69,64,73,66,61,96,89,64,29.81,29.70,8,1,8,0.08
2013-7-25,82,68,62,73,64,60,96,87,66,29.97,29.79,6,1,7,0.55
2013-7-26,78,68,62,71,65,60,97,90,67,30.04,29.96,7,0,10,0.02
2013-7-27,75,69,65,70,67,63,98,92,79,29.98,29.83,7,0,7,0.09
2013-7-28,78,69,62,73,64,59,96,86,70,29.97,29.84,6,0,6,0.00
2013-7-29,81,69,62,70,63,58,92,81,62,30.12,29.96,6,0,7,0.00
2013-7-30,79,70,62,71,64,58,93,84,68,30.15,30.07,6,1,7,0.00
2013-7-31,72,67,64,69,66,63,98,95,89,30.12,29.91,5,0,6,0.12
2013-8-1,84,71,64,74,67,63,98,88,59,29.94,29.83,7,0,8,0.00
2013-8-2,81,71,63,72,66,60,94,83,67,29.98,29.86,7,1,7,0.00
2013-8-3,81,72,66,71,65,60,93,79,56,29.98,29.90,5,0,6,0.00
2013-8-4,84,72,64,71,64,57,93,78,55,29.97,29.89,8,1,9,0.00
2013-8-5,79,70,63,71,64,56,94,82,67,29.99,29.91,10,0,10,0.00
2013-8-6,79,70,66,72,67,65,96,90,76,29.95,29.88,7,0,7,0.01
2013-8-11,83,72,67,74,68,65,96,88,67,30.09,30.00,6,0,6,0.06
2013-8-12,84,72,67,75,68,65,97,88,65,30.05,29.91,5,0,7,0.01
2013-8-13,81,71,66,74,66,63,96,86,64,29.92,29.78,8,0,8,0.10
2013-8-14,76,66,62,69,63,57,96,88,71,30.01,29.82,6,0,7,0.00
2013-8-15,65,60,56,59,57,54,96,89,77,30.09,29.99,6,0,7,0.00
2013-8-16,68,60,55,62,56,53,96,89,75,30.12,30.04,6,0,6,0.00
2013-8-17,65,60,55,61,58,54,97,93,83,30.14,30.07,4,0,4,0.23
2013-8-18,70,63,60,67,62,59,98,96,89,30.19,30.09,6,0,7,0.22
2013-8-19,69,64,62,66,63,61,98,96,91,30.16,30.04,4,0,5,1.97
2013-8-20,76,67,62,71,65,61,98,94,80,30.15,30.06,6,0,7,0.01
2013-8-21,70,66,64,68,65,63,98,96,91,30.19,30.09,3,0,4,0.60
2013-8-22,81,70,65,72,66,63,97,87,64,30.13,29.99,5,0,5,0.00
2013-8-23,82,70,63,73,65,61,96,86,64,30.02,29.92,6,0,6,0.28
2013-8-24,79,67,59,68,62,56,98,86,61,30.25,30.01,7,0,10,0.00
2013-8-25,75,64,56,66,58,53,94,83,64,30.34,30.24,7,0,8,0.00
2013-8-26,79,66,57,68,61,55,95,83,60,30.29,30.09,8,0,8,0.00
2013-8-27,82,69,60,70,63,57,95,82,59,30.11,29.98,5,0,7,0.00
2013-8-28,83,72,65,74,66,61,91,81,61,30.00,29.90,7,0,7,0.00
2013-8-29,86,74,66,75,68,64,94,83,65,29.92,29.86,5,0,5,0.00
2013-8-30,76,70,67,71,68,65,97,92,81,29.97,29.88,8,0,8,0.02
2013-8-31,80,71,65,73,68,64,97,89,71,29.92,29.83,7,0,7,0.00
2013-9-1,83,72,67,75,68,65,94,87,70,29.86,29.74,7,0,7,0.00
2013-9-2,83,71,64,73,66,63,95,86,62,29.86,29.77,5,0,6,0.06
2013-9-3,84,71,61,71,64,59,97,81,51,29.93,29.78,6,1,6,0.50
2013-9-4,81,70,63,71,64,60,93,82,64,30.05,29.91,6,1,7,0.00
2013-9-5,83,71,64,70,64,57,95,80,60,30.07,30.00,7,0,7,0.00
2013-9-6,78,68,59,67,60,51,91,77,59,30.12,30.02,7,1,7,0.00
2013-9-7,78,67,61,69,63,59,92,86,70,30.07,29.96,7,0,7,0.00
2013-9-8,79,69,62,70,64,60,95,85,67,29.97,29.90,5,0,5,0.00
2013-9-9,82,70,65,71,65,62,93,85,62,30.09,29.96,6,0,7,0.02
2013-9-10,81,71,64,71,66,62,94,84,64,30.18,30.08,7,0,7,0.00
2013-9-11,83,71,64,72,65,61,94,82,61,30.17,30.04,6,0,7,0.00
2013-9-12,83,70,65,71,65,60,95,84,61,30.04,29.82,8,1,8,0.00
2013-9-13,80,66,57,62,58,51,95,76,47,29.83,29.74,8,1,8,0.02
2013-9-14,75,60,50,60,53,48,96,78,54,30.08,29.83,7,1,7,0.00
2013-9-15,74,62,56,64,58,53,92,85,65,30.16,30.08,7,0,7,0.00
2013-9-16,83,68,62,68,62,59,93,81,49,30.12,30.02,5,0,6,0.00
2013-9-17,66,61,57,60,57,54,92,85,69,30.21,30.09,6,0,6,0.00
2013-9-18,68,59,54,61,56,52,94,90,76,30.23,30.12,6,0,7,0.00
2013-9-19,75,64,56,66,61,55,98,89,70,30.16,30.05,5,0,5,0.00
2013-9-20,79,67,61,69,63,59,95,86,66,30.06,29.88,5,0,7,0.04
2013-9-21,65,62,57,63,61,56,98,95,88,29.89,29.62,8,1,12,1.58
2013-9-22,76,62,53,65,57,52,98,86,62,29.87,29.69,6,1,8,0.00
2013-9-23,71,61,55,61,56,53,94,84,66,30.01,29.87,7,0,7,0.00
2013-9-24,70,60,55,63,57,53,95,90,76,30.01,29.90,7,0,7,0.00
2013-9-25,60,58,56,58,57,55,98,97,95,29.90,29.81,4,0,4,1.46
2013-9-26,70,60,54,64,58,53,98,93,81,30.00,29.85,5,0,7,0.00
2013-9-27,74,60,50,62,56,49,98,86,59,30.14,30.00,7,0,8,0.00
2013-9-28,67,58,52,59,54,50,96,88,75,30.19,30.10,6,0,8,0.00
2013-9-29,68,57,48,59,53,47,96,88,69,30.14,30.00,5,0,6,0.00
2013-9-30,69,58,52,60,55,51,96,89,67,30.06,29.98,5,0,7,0.00
2013-10-1,73,62,55,62,57,53,95,84,63,30.12,30.03,5,0,7,0.00
2013-10-2,78,65,58,64,59,55,95,82,56,30.12,30.04,7,0,7,0.00
2013-10-3,74,65,61,65,59,55,88,81,67,30.09,30.02,5,0,7,0.00
2013-10-4,78,66,59,66,60,57,94,82,58,30.12,30.05,6,0,8,0.00
2013-10-5,80,68,62,68,61,58,91,80,56,30.09,29.99,6,0,6,0.00
2013-10-6,73,66,61,65,61,59,94,85,71,30.00,29.83,9,0,9,0.00
2013-10-7,72,62,52,66,59,49,97,90,74,29.94,29.73,6,0,8,0.00
2013-10-8,69,56,49,56,50,45,94,82,53,30.15,29.92,7,0,8,0.08
2013-10-9,67,53,44,56,48,42,95,83,60,30.19,30.11,6,0,7,0.00
2013-10-10,74,58,50,58,52,46,96,81,51,30.12,29.98,6,0,7,0.00
2013-10-11,73,61,54,61,52,48,90,75,45,29.99,29.91,5,0,5,0.00
2013-10-12,70,61,55,62,56,51,90,84,66,30.06,29.94,6,0,6,0.00
2013-10-13,67,61,57,62,58,54,97,90,80,30.17,30.05,6,0,6,0.04
2013-10-14,65,59,56,61,58,55,98,95,85,30.18,30.09,6,0,7,0.04
2013-10-15,64,57,54,60,55,53,97,94,77,30.15,30.02,6,0,6,0.00
2013-10-16,62,57,52,58,54,50,96,91,81,30.05,29.93,6,0,6,0.01
2013-10-17,60,58,54,60,57,54,99,97,92,29.95,29.83,5,0,5,0.12
2013-10-18,64,55,48,57,52,47,99,91,73,29.99,29.86,8,1,8,0.00
2013-10-19,60,54,48,55,48,38,97,81,45,29.94,29.83,6,0,7,0.00
2013-10-20,62,50,40,50,43,36,96,79,55,30.07,29.90,7,1,7,0.00
2013-10-21,63,51,45,55,48,42,96,88,73,30.11,29.99,8,0,8,0.00
2013-10-22,66,56,50,56,50,43,94,80,55,30.01,29.77,6,0,6,0.01
2013-10-23,54,46,34,44,36,28,88,72,49,29.99,29.69,13,2,16,0.00
2013-10-24,54,42,32,39,33,27,84,71,51,30.17,29.99,10,1,11,0.00
2013-10-25,53,39,30,33,28,22,87,67,35,30.35,30.16,8,1,8,0.00
2013-10-26,52,40,32,42,32,26,81,72,55,30.34,30.10,8,1,8,0.00
2013-10-27,62,52,44,51,46,40,88,80,63,30.12,30.05,9,0,9,0.00
2013-10-28,61,54,50,55,50,48,96,89,73,30.23,30.07,5,0,6,0.03
2013-10-29,64,55,48,54,50,47,95,84,60,30.31,30.20,5,0,6,0.00
2013-10-30,73,60,54,60,54,50,93,82,55,30.26,30.14,7,0,8,0.00
2013-10-31,59,57,56,58,54,51,98,89,82,30.14,29.84,17,1,17,0.30
2013-11-1,69,60,51,62,56,45,98,89,51,29.85,29.61,15,1,16,0.54
2013-11-2,61,49,41,47,41,36,88,74,45,29.96,29.70,16,1,16,0.02
2013-11-3,60,46,37,41,36,33,88,70,44,30.33,29.94,7,1,9,0.00
2013-11-4,55,43,35,37,33,31,88,71,44,30.48,30.33,10,0,10,0.00
2013-11-5,60,44,33,42,33,24,90,68,27,30.51,30.40,6,0,6,0.00
2013-11-6,60,53,47,54,50,43,97,91,78,30.42,30.11,6,0,6,0.33
2013-11-7,64,52,36,56,44,24,97,75,39,30.12,29.95,12,1,12,0.03
2013-11-8,58,42,32,32,25,12,76,53,18,30.31,30.07,7,1,8,0.00
2013-11-9,51,43,36,35,28,16,67,55,30,30.33,30.22,8,1,9,0.00
2013-11-10,67,53,44,34,27,13,60,39,23,30.25,30.15,11,1,13,0.00
2013-11-11,58,48,42,35,31,26,62,52,38,30.27,30.13,7,1,7,0.00
2013-11-12,54,42,21,38,27,12,73,55,43,30.36,30.04,11,1,13,0.00
2013-11-13,50,33,20,18,12,3,77,46,20,30.54,30.35,8,1,9,0.00
2013-11-14,55,42,33,27,16,6,45,35,24,30.49,30.31,8,1,8,0.00
2013-11-15,49,46,40,48,38,2,98,80,19,30.32,30.17,7,0,7,0.36
2013-11-16,57,50,47,56,50,47,99,98,91,30.25,30.16,7,0,7,0.04
2013-11-17,58,54,52,58,54,51,99,99,98,30.19,29.87,6,0,9,0.64
2013-11-18,67,54,40,57,43,31,99,69,35,29.94,29.83,10,1,10,0.02
2013-11-19,55,42,35,32,27,20,75,56,30,30.21,29.93,8,1,11,0.00
2013-11-20,50,39,30,32,28,24,85,65,44,30.42,30.21,8,1,8,0.00
2013-11-21,51,45,38,50,42,31,98,90,74,30.45,30.36,5,0,5,0.50
2013-11-22,60,54,50,60,53,50,99,97,90,30.38,30.09,5,0,5,0.07
2013-11-23,55,48,32,54,40,12,98,77,34,30.10,30.03,14,2,14,0.01
2013-11-24,43,31,22,22,11,-1,73,47,17,30.49,30.10,8,1,15,0.00
2013-11-25,39,29,22,26,12,5,84,50,31,30.51,30.32,6,0,6,0.00
2013-11-26,46,41,30,46,40,27,99,97,85,30.32,29.62,6,1,10,4.15
2013-11-27,45,31,20,44,27,16,98,85,68,30.17,29.55,16,2,18,0.08
2013-11-28,44,31,19,28,21,12,86,67,45,30.49,30.17,9,1,9,0.02
2013-11-29,56,41,32,31,22,11,72,46,30,30.54,30.46,7,1,7,0.02
2013-11-30,48,35,26,29,24,19,86,65,44,30.55,30.36,7,0,7,0.00
2013-12-1,55,45,37,40,34,20,84,68,46,30.36,29.98,8,1,8,0.00
2013-12-2,53,44,40,43,38,31,95,79,65,29.98,29.80,6,0,6,0.00
2013-12-3,48,46,44,48,45,42,98,97,94,29.94,29.83,6,0,6,0.04
2013-12-4,55,52,48,55,52,47,99,99,98,30.06,29.92,7,0,8,0.03
2013-12-5,61,58,54,61,57,54,99,99,99,30.06,29.96,15,1,15,1.34
2013-12-6,62,60,55,61,60,55,99,99,98,30.00,29.89,11,2,19,1.68
2013-12-7,57,50,41,57,49,41,99,94,82,30.28,29.93,9,1,9,0.03
2013-12-8,41,38,35,41,37,35,99,99,98,30.29,30.20,2,0,4,0.53
2013-12-9,58,49,38,58,48,37,100,96,87,30.21,29.98,11,1,11,1.31
2013-12-10,52,43,30,52,36,15,99,78,52,30.25,29.83,18,2,19,0.34
2013-12-11,50,38,29,31,16,5,65,41,23,30.41,30.25,7,1,8,0.00
2013-12-12,48,35,26,22,13,2,73,45,16,30.38,30.24,14,1,14,0.00
2013-12-13,48,37,30,26,19,8,63,48,36,30.36,30.24,8,1,8,0.00
2013-12-14,44,40,37,44,36,20,98,87,48,30.25,29.78,5,0,6,1.22
2013-12-15,46,38,30,44,33,26,98,82,58,30.09,29.73,12,2,13,0.00
2013-12-16,53,40,30,30,27,23,85,61,33,30.19,30.07,13,1,13,0.00
2013-12-17,59,45,36,33,29,20,68,55,32,30.16,29.97,18,2,18,0.00
2013-12-18,49,38,27,22,16,6,63,43,20,30.31,29.99,14,1,18,0.00
2013-12-19,62,48,42,32,24,16,47,39,27,30.31,30.19,8,1,10,0.00
2013-12-20,57,48,43,49,37,23,91,67,45,30.20,30.12,8,1,11,0.00
2013-12-21,59,55,51,59,54,49,99,97,91,30.13,29.94,18,2,19,0.86
2013-12-22,60,56,53,60,55,52,99,99,99,30.01,29.91,18,2,18,3.61
2013-12-23,53,48,34,53,46,33,99,93,74,30.11,29.96,9,1,10,0.23
2013-12-24,40,31,22,33,24,18,94,76,48,30.39,30.10,10,1,10,0.01
2013-12-25,37,28,22,23,18,14,87,68,49,30.49,30.37,6,1,7,0.00
2013-12-26,51,37,26,29,21,14,80,55,27,30.38,30.28,9,1,11,0.00
2013-12-27,50,39,32,28,25,22,78,58,39,30.44,30.33,6,0,7,0.00
2013-12-28,47,42,37,38,29,19,96,61,36,30.41,30.04,7,0,7,0.48
2013-12-29,56,44,38,47,41,32,98,87,65,30.04,29.79,14,1,15,1.60
2013-12-30,47,40,37,39,36,32,90,83,66,30.12,29.92,12,1,14,0.00
2013-12-31,45,36,31,32,24,19,82,63,36,30.36,30.09,17,1,17,0.00
2014-1-1,43,36,33,30,26,19,85,66,53,30.37,30.14,8,0,8,0.00
2014-1-2,44,36,17,44,33,12,98,89,77,30.15,29.67,21,1,21,0.12